This is the latest recevied weather packets stored in our database for station/object AA7VG. If no packets are shown the sender has not sent any weather packets the latest 10 day(s).
| Time | Temp. | Humidity | Pressure | Rain* | Wind** | Luminosity | Snow |
|---|---|---|---|---|---|---|---|
| 1777896116 | 8.89° C | 47% | 1012.5 hPa | 0 mm | - | - | - |
| 1777895814 | 8.89° C | 48% | 1012.6 hPa | 0 mm | - | - | - |
| 1777895511 | 8.33° C | 50% | 1012.3 hPa | 0 mm | - | - | - |
| 1777895209 | 7.78° C | 52% | 1012.2 hPa | 0 mm | - | - | - |
| 1777894906 | 7.22° C | 55% | 1012 hPa | 0 mm | - | - | - |
| 1777894603 | 6.67° C | 55% | 1011.7 hPa | 0 mm | - | - | - |
| 1777894300 | 5.56° C | 64% | 1011.8 hPa | 0 mm | - | - | - |
| 1777893998 | 5.56° C | 61% | 1011.7 hPa | 0 mm | - | - | - |
| 1777893694 | 5.56° C | 61% | 1011.3 hPa | 0 mm | - | - | - |
| 1777893390 | 5.56° C | 62% | 1011.4 hPa | 0 mm | - | - | - |
| 1777893086 | 5° C | 63% | 1011.5 hPa | 0 mm | - | - | - |
| 1777892783 | 5° C | 65% | 1011.2 hPa | 0 mm | - | - | - |
| 1777892480 | 5° C | 64% | 1011.4 hPa | 0 mm | - | - | - |
| 1777892175 | 5° C | 64% | 1011.1 hPa | 0 mm | - | - | - |
| 1777891872 | 5° C | 63% | 1011 hPa | 0 mm | - | - | - |
| 1777891570 | 5° C | 63% | 1011.2 hPa | 0 mm | - | - | - |
| 1777891266 | 5° C | 63% | 1011.2 hPa | 0 mm | - | - | - |
| 1777890966 | 5° C | 63% | 1011.1 hPa | 0 mm | - | - | - |
| 1777890660 | 4.44° C | 64% | 1010.5 hPa | 0 mm | - | - | - |
| 1777890356 | 5° C | 64% | 1010.9 hPa | 0 mm | - | - | - |
| 1777890053 | 5° C | 63% | 1010.5 hPa | 0 mm | - | - | - |
| 1777889750 | 5° C | 64% | 1010.5 hPa | 0 mm | - | - | - |
| 1777889448 | 5° C | 64% | 1010.6 hPa | 0 mm | - | - | - |
| 1777889145 | 6.11° C | 63% | 1010.6 hPa | 0 mm | - | - | - |
| 1777888843 | 6.67° C | 61% | 1010.4 hPa | 0 mm | - | - | - |
* Rain latest hour (hover to see other rain measurements)
** Current wind speed in m/s (hover to see current wind gust speed)